createdAt,value
2023-02-20T00:01:06.603Z,100988.22
2023-02-20T00:03:35.656Z,100989.81
2023-02-20T00:06:03.368Z,100995.53
2023-02-20T00:08:31.107Z,100991.09
2023-02-20T00:10:58.809Z,100979.84
2023-02-20T00:13:26.501Z,100983.66
2023-02-20T00:15:54.211Z,100985.59
2023-02-20T00:18:22.062Z,100978.81
2023-02-20T00:20:51.077Z,100982.72
2023-02-20T00:23:19.681Z,100974.84
2023-02-20T00:25:47.714Z,100967.06
2023-02-20T00:28:15.547Z,100977.13
2023-02-20T00:30:43.274Z,100972.56
2023-02-20T00:33:14.956Z,100961.69
2023-02-20T00:35:42.640Z,100956.78
2023-02-20T00:38:11.708Z,100957.34
2023-02-20T00:40:39.318Z,100957.47
2023-02-20T00:43:06.977Z,100965.91
2023-02-20T00:45:35.990Z,100960.44
2023-02-20T00:48:03.769Z,100960.69
2023-02-20T00:50:31.545Z,100965.00
2023-02-20T00:52:59.352Z,100962.50
2023-02-20T00:55:28.409Z,100932.41
2023-02-20T00:57:56.264Z,100957.91
2023-02-20T01:00:27.075Z,100960.72
2023-02-20T01:02:54.974Z,100967.09
2023-02-20T01:05:24.801Z,100952.88
2023-02-20T01:07:54.135Z,100960.25
2023-02-20T01:10:22.062Z,100953.88
2023-02-20T01:12:51.166Z,100964.75
2023-02-20T01:15:19.220Z,100948.25
2023-02-20T01:17:47.694Z,100958.00
2023-02-20T01:20:15.702Z,100958.41
2023-02-20T01:22:43.461Z,100965.38
2023-02-20T01:25:11.696Z,100957.06
2023-02-20T01:27:39.348Z,100960.72
2023-02-20T01:30:10.360Z,100956.59
2023-02-20T01:32:38.201Z,100955.50
2023-02-20T01:35:06.318Z,100955.69
2023-02-20T01:37:35.167Z,100949.25
2023-02-20T01:40:03.468Z,100961.84
2023-02-20T01:42:33.736Z,100945.97
2023-02-20T01:45:29.163Z,100964.47
2023-02-20T01:47:58.227Z,100953.25
2023-02-20T01:50:30.857Z,100964.69
2023-02-20T01:53:03.537Z,100962.63
2023-02-20T01:55:33.764Z,100953.16
2023-02-20T01:58:23.517Z,100951.41
2023-02-20T02:00:52.877Z,100926.97
2023-02-20T02:03:23.760Z,100957.47
2023-02-20T02:05:55.994Z,100958.34
2023-02-20T02:08:24.719Z,100957.66
2023-02-20T02:10:58.092Z,100947.41
2023-02-20T02:13:26.799Z,100948.03
2023-02-20T02:16:07.072Z,100944.97
2023-02-20T02:18:51.963Z,100927.31
2023-02-20T02:22:10.364Z,100928.78
2023-02-20T02:25:08.976Z,100936.47
2023-02-20T02:28:04.731Z,100943.69
2023-02-20T02:30:56.956Z,100934.84
2023-02-20T02:33:51.938Z,100927.13
2023-02-20T02:36:32.837Z,100930.81
2023-02-20T02:39:06.590Z,100922.59
2023-02-20T02:41:43.604Z,100918.03
2023-02-20T02:44:17.577Z,100918.41
2023-02-20T02:46:54.035Z,100910.78
2023-02-20T02:49:27.582Z,100912.53
2023-02-20T02:51:57.657Z,100916.44
2023-02-20T02:54:27.459Z,100918.69
2023-02-20T02:57:16.055Z,100917.44
2023-02-20T02:59:49.809Z,100909.56
2023-02-20T03:02:20.904Z,100918.69
2023-02-20T03:04:51.720Z,100906.31
2023-02-20T03:07:20.872Z,100916.59
2023-02-20T03:09:53.394Z,100918.69
2023-02-20T03:12:23.901Z,100919.91
2023-02-20T03:15:17.367Z,100915.91
2023-02-20T03:17:50.871Z,100912.38
2023-02-20T03:20:23.419Z,100922.22
2023-02-20T03:22:55.273Z,100920.28
2023-02-20T03:25:26.899Z,100923.09
2023-02-20T03:28:00.302Z,100916.22
2023-02-20T03:30:37.532Z,100910.78
2023-02-20T03:33:29.819Z,100886.59
2023-02-20T03:36:18.250Z,100902.00
2023-02-20T03:39:09.710Z,100903.16
2023-02-20T03:41:59.073Z,100908.00
2023-02-20T03:44:29.278Z,100908.31
2023-02-20T03:47:01.812Z,100901.59
2023-02-20T03:49:36.512Z,100912.63
2023-02-20T03:52:05.416Z,100907.22
2023-02-20T03:54:38.136Z,100912.16
2023-02-20T03:57:10.917Z,100916.94
2023-02-20T03:59:44.340Z,100919.94
2023-02-20T04:02:29.212Z,100896.78
2023-02-20T04:05:01.060Z,100922.94
2023-02-20T04:07:34.619Z,100923.72
2023-02-20T04:10:07.715Z,100923.94
2023-02-20T04:12:41.030Z,100921.94
2023-02-20T04:15:10.882Z,100935.47
2023-02-20T04:17:48.084Z,100918.75
2023-02-20T04:20:17.303Z,100920.69
2023-02-20T04:22:59.745Z,100926.47
2023-02-20T04:25:35.627Z,100922.63
2023-02-20T04:28:06.249Z,100921.81
2023-02-20T04:30:45.046Z,100936.59
2023-02-20T04:33:15.783Z,100910.56
2023-02-20T04:35:45.021Z,100925.72
2023-02-20T04:38:14.088Z,100923.97
2023-02-20T04:40:42.732Z,100914.63
2023-02-20T04:43:10.463Z,100915.25
2023-02-20T04:45:38.199Z,100918.50
2023-02-20T04:48:06.422Z,100921.38
2023-02-20T04:50:36.096Z,100914.41
2023-02-20T04:53:05.447Z,100922.41
2023-02-20T04:55:33.132Z,100925.44
2023-02-20T04:58:04.708Z,100924.34
2023-02-20T05:00:45.358Z,100925.31
2023-02-20T05:03:12.981Z,100930.94
2023-02-20T05:05:41.992Z,100935.91
2023-02-20T05:08:09.835Z,100921.16
2023-02-20T05:10:37.612Z,100938.03
2023-02-20T05:13:05.595Z,100943.63
2023-02-20T05:15:34.145Z,100940.09
2023-02-20T05:18:01.879Z,100932.25
2023-02-20T05:20:43.959Z,100928.69
2023-02-20T05:23:13.056Z,100921.47
2023-02-20T05:25:40.758Z,100925.50
2023-02-20T05:28:08.389Z,100925.81
2023-02-20T05:30:36.382Z,100927.44
2023-02-20T05:33:04.107Z,100932.44
2023-02-20T05:35:33.010Z,100925.19
2023-02-20T05:38:00.651Z,100925.22
2023-02-20T05:40:29.732Z,100916.19
2023-02-20T05:42:57.317Z,100923.91
2023-02-20T05:45:25.032Z,100929.03
2023-02-20T05:47:52.681Z,100921.97
2023-02-20T05:50:20.499Z,100917.16
2023-02-20T05:52:48.154Z,100923.78
2023-02-20T05:55:16.111Z,100910.59
2023-02-20T05:57:45.154Z,100914.59
2023-02-20T06:00:14.397Z,100918.31
2023-02-20T06:02:42.080Z,100911.22
2023-02-20T06:05:09.904Z,100925.38
2023-02-20T06:07:37.610Z,100916.38
2023-02-20T06:10:05.561Z,100917.97
2023-02-20T06:12:33.500Z,100910.72
2023-02-20T06:15:02.486Z,100912.66
2023-02-20T06:17:30.668Z,100907.03
2023-02-20T06:19:58.330Z,100913.78
2023-02-20T06:22:25.948Z,100904.63
2023-02-20T06:24:53.662Z,100905.59
2023-02-20T06:27:21.413Z,100898.53
2023-02-20T06:29:49.523Z,100904.63
2023-02-20T06:32:18.607Z,100909.13
2023-02-20T06:34:46.726Z,100915.84
2023-02-20T06:37:14.852Z,100935.78
2023-02-20T06:39:45.779Z,100924.22
2023-02-20T06:42:13.421Z,100923.44
2023-02-20T06:44:41.262Z,100912.34
2023-02-20T06:47:09.732Z,100922.47
2023-02-20T06:49:38.676Z,100925.50
2023-02-20T06:52:08.244Z,100924.16
2023-02-20T06:54:36.421Z,100920.34
2023-02-20T06:57:04.166Z,100916.41
2023-02-20T06:59:31.888Z,100925.75
2023-02-20T07:01:59.558Z,100930.53
2023-02-20T07:04:28.029Z,100922.25
2023-02-20T07:06:56.199Z,100929.63
2023-02-20T07:09:25.880Z,100929.28
2023-02-20T07:11:53.707Z,100935.72
2023-02-20T07:14:22.069Z,100936.31
2023-02-20T07:16:49.726Z,100942.53
2023-02-20T07:19:17.775Z,100943.53
2023-02-20T07:21:47.632Z,100936.94
2023-02-20T07:24:15.348Z,100942.00
2023-02-20T07:26:44.455Z,100944.47
2023-02-20T07:29:13.547Z,100948.47
2023-02-20T07:31:41.470Z,100952.47
2023-02-20T07:34:09.521Z,100945.09
2023-02-20T07:36:39.276Z,100941.88
2023-02-20T07:39:07.628Z,100935.81
2023-02-20T07:41:35.985Z,100936.03
2023-02-20T07:44:07.737Z,100931.38
2023-02-20T07:46:35.413Z,100935.03
2023-02-20T07:49:04.215Z,100938.44
2023-02-20T07:51:32.022Z,100936.94
2023-02-20T07:53:59.920Z,100931.44
2023-02-20T07:56:27.687Z,100925.06
2023-02-20T07:58:55.420Z,100926.63
2023-02-20T08:01:25.069Z,100928.81
2023-02-20T08:03:52.711Z,100927.72
2023-02-20T08:06:20.815Z,100921.28
2023-02-20T08:08:50.147Z,100934.50
2023-02-20T08:11:18.459Z,100929.97
2023-02-20T08:13:46.865Z,100903.22
2023-02-20T08:16:15.038Z,100916.75
2023-02-20T08:18:44.258Z,100919.41
2023-02-20T08:21:12.090Z,100921.69
2023-02-20T08:23:39.783Z,100924.16
2023-02-20T08:26:07.397Z,100920.06
2023-02-20T08:28:35.074Z,100921.41
2023-02-20T08:31:02.829Z,100914.00
2023-02-20T08:33:30.473Z,100909.91
2023-02-20T08:35:59.544Z,100917.16
2023-02-20T08:38:31.011Z,100919.41
2023-02-20T08:40:58.961Z,100914.44
2023-02-20T08:43:28.300Z,100911.50
2023-02-20T08:45:56.448Z,100909.13
2023-02-20T08:48:24.226Z,100899.66
2023-02-20T08:50:52.406Z,100886.13
2023-02-20T08:53:21.452Z,100901.31
2023-02-20T08:55:49.119Z,100892.84
2023-02-20T08:58:20.249Z,100893.59
2023-02-20T09:00:47.926Z,100893.25
2023-02-20T09:03:15.603Z,100888.41
2023-02-20T09:05:43.408Z,100893.06
2023-02-20T09:08:11.885Z,100893.31
2023-02-20T09:10:41.198Z,100883.03
2023-02-20T09:13:09.027Z,100883.25
2023-02-20T09:15:39.645Z,100887.63
2023-02-20T09:18:09.480Z,100883.00
2023-02-20T09:20:38.033Z,100890.16
2023-02-20T09:23:06.436Z,100893.16
2023-02-20T09:25:34.689Z,100888.19
2023-02-20T09:28:03.914Z,100885.13
2023-02-20T09:30:31.697Z,100884.81
2023-02-20T09:32:59.467Z,100878.97
2023-02-20T09:35:30.162Z,100881.16
2023-02-20T09:37:58.455Z,100868.47
2023-02-20T09:40:28.155Z,100873.28
2023-02-20T09:43:16.058Z,100875.63
2023-02-20T09:45:50.188Z,100878.69
2023-02-20T09:48:32.494Z,100872.69
2023-02-20T09:51:04.674Z,100869.91
2023-02-20T09:53:36.209Z,100867.75
2023-02-20T09:56:07.239Z,100869.25
2023-02-20T09:58:44.265Z,100863.31
2023-02-20T10:01:16.936Z,100866.78
2023-02-20T10:03:54.270Z,100868.03
2023-02-20T10:06:26.168Z,100851.13
2023-02-20T10:08:54.692Z,100850.34
2023-02-20T10:11:36.798Z,100852.81
2023-02-20T10:14:21.409Z,100858.59
2023-02-20T10:16:55.627Z,100844.22
2023-02-20T10:19:32.862Z,100850.19
2023-02-20T10:22:10.248Z,100843.66
2023-02-20T10:24:55.965Z,100850.50
2023-02-20T10:27:34.530Z,100834.91
2023-02-20T10:30:05.679Z,100842.78
2023-02-20T10:32:41.031Z,100839.38
2023-02-20T10:35:12.148Z,100826.31
2023-02-20T10:37:47.715Z,100834.31
2023-02-20T10:40:24.376Z,100841.56
2023-02-20T10:42:59.353Z,100838.28
2023-02-20T10:45:38.645Z,100829.25
2023-02-20T10:48:08.157Z,100832.75
2023-02-20T10:50:41.853Z,100830.91
2023-02-20T10:53:19.720Z,100834.44
2023-02-20T10:55:53.979Z,100818.50
2023-02-20T10:58:27.637Z,100827.19
2023-02-20T11:01:00.361Z,100823.06
2023-02-20T11:03:40.701Z,100819.69
2023-02-20T11:06:13.337Z,100816.09
2023-02-20T11:08:41.369Z,100815.22
2023-02-20T11:11:22.733Z,100820.56
2023-02-20T11:13:50.749Z,100809.78
2023-02-20T11:16:27.250Z,100800.69
2023-02-20T11:19:04.485Z,100804.66
2023-02-20T11:21:40.687Z,100801.78
2023-02-20T11:24:31.138Z,100775.34
2023-02-20T11:27:03.799Z,100790.56
2023-02-20T11:29:38.197Z,100791.84
2023-02-20T11:32:28.670Z,100787.41
2023-02-20T11:35:21.740Z,100778.66
2023-02-20T11:37:55.772Z,100775.25
2023-02-20T11:40:28.963Z,100778.31
2023-02-20T11:42:57.098Z,100772.63
2023-02-20T11:45:26.416Z,100744.72
2023-02-20T11:48:10.586Z,100759.50
2023-02-20T11:50:43.626Z,100740.16
2023-02-20T11:53:21.664Z,100742.72
2023-02-20T11:55:59.672Z,100750.38
2023-02-20T11:58:29.220Z,100735.47
2023-02-20T12:00:57.220Z,100730.28
2023-02-20T12:03:29.077Z,100734.50
2023-02-20T12:05:58.550Z,100718.44
2023-02-20T12:08:43.747Z,100717.38
2023-02-20T12:11:16.423Z,100727.94
2023-02-20T12:13:45.930Z,100723.63
2023-02-20T12:16:30.372Z,100725.84
2023-02-20T12:19:07.207Z,100708.75
2023-02-20T12:21:50.709Z,100703.03
2023-02-20T12:24:36.842Z,100695.00
2023-02-20T12:27:19.825Z,100701.47
2023-02-20T12:29:55.938Z,100694.22
2023-02-20T12:32:36.016Z,100691.13
2023-02-20T12:35:26.967Z,100682.56
2023-02-20T12:38:08.010Z,100682.09
2023-02-20T12:40:51.754Z,100669.25
2023-02-20T12:43:32.218Z,100666.78
2023-02-20T12:46:07.835Z,100662.53
2023-02-20T12:48:47.999Z,100642.88
2023-02-20T12:51:29.557Z,100643.00
2023-02-20T12:54:20.599Z,100641.41
2023-02-20T12:57:00.440Z,100630.91
2023-02-20T12:59:32.050Z,100637.66
2023-02-20T13:02:05.664Z,100634.94
2023-02-20T13:04:43.399Z,100624.34
2023-02-20T13:07:19.281Z,100631.53
2023-02-20T13:10:00.720Z,100619.56
2023-02-20T13:12:28.404Z,100617.66
2023-02-20T13:15:16.176Z,100609.47
2023-02-20T13:17:50.844Z,100613.09
2023-02-20T13:20:21.402Z,100604.81
2023-02-20T13:23:05.611Z,100596.88
2023-02-20T13:25:41.886Z,100598.88
2023-02-20T13:28:35.505Z,100598.06
2023-02-20T13:31:24.983Z,100590.94
2023-02-20T13:34:14.267Z,100590.97
2023-02-20T13:36:45.005Z,100591.75
2023-02-20T13:39:40.489Z,100580.25
2023-02-20T13:42:36.326Z,100573.94
2023-02-20T13:45:38.927Z,100570.75
2023-02-20T13:48:37.467Z,100568.38
2023-02-20T13:51:36.943Z,100566.81
2023-02-20T13:54:16.610Z,100562.44
2023-02-20T13:56:48.173Z,100560.06
2023-02-20T13:59:18.788Z,100555.69
2023-02-20T14:02:20.152Z,100535.50
2023-02-20T14:05:02.892Z,100527.19
2023-02-20T14:07:37.432Z,100522.84
2023-02-20T14:10:09.613Z,100538.69
2023-02-20T14:12:39.029Z,100520.09
2023-02-20T14:15:08.260Z,100522.06
2023-02-20T14:17:39.669Z,100498.28
2023-02-20T14:20:16.652Z,100516.09
2023-02-20T14:22:44.351Z,100503.84
2023-02-20T14:25:32.866Z,100498.28
2023-02-20T14:28:14.671Z,100489.16
2023-02-20T14:30:42.903Z,100487.59
2023-02-20T14:33:22.574Z,100493.13
2023-02-20T14:36:12.242Z,100486.41
2023-02-20T14:38:53.942Z,100475.31
2023-02-20T14:41:25.163Z,100486.03
2023-02-20T14:43:58.281Z,100452.00
2023-02-20T14:46:28.167Z,100474.13
2023-02-20T14:49:08.969Z,100464.66
2023-02-20T14:51:37.286Z,100476.53
2023-02-20T14:54:19.285Z,100472.56
2023-02-20T14:56:47.762Z,100480.47
2023-02-20T14:59:25.532Z,100464.25
2023-02-20T15:01:55.072Z,100471.78
2023-02-20T15:04:24.911Z,100459.53
2023-02-20T15:06:54.351Z,100445.28
2023-02-20T15:09:23.446Z,100451.59
2023-02-20T15:11:53.632Z,100448.78
2023-02-20T15:14:24.366Z,100442.88
2023-02-20T15:17:08.831Z,100441.69
2023-02-20T15:19:40.102Z,100432.97
2023-02-20T15:22:26.470Z,100429.34
2023-02-20T15:24:55.420Z,100426.59
2023-02-20T15:27:24.604Z,100432.91
2023-02-20T15:30:10.845Z,100423.44
2023-02-20T15:32:41.262Z,100420.63
2023-02-20T15:35:17.768Z,100427.72
2023-02-20T15:37:49.456Z,100432.47
2023-02-20T15:40:22.201Z,100396.41
2023-02-20T15:42:55.971Z,100433.97
2023-02-20T15:45:24.415Z,100431.19
2023-02-20T15:47:52.358Z,100428.06
2023-02-20T15:50:22.283Z,100391.63
2023-02-20T15:52:51.139Z,100429.22
2023-02-20T15:55:21.393Z,100421.66
2023-02-20T15:57:50.900Z,100422.47
2023-02-20T16:00:21.138Z,100416.94
2023-02-20T16:02:51.479Z,100417.72
2023-02-20T16:05:21.057Z,100420.47
2023-02-20T16:07:48.941Z,100418.44
2023-02-20T16:10:17.733Z,100421.19
2023-02-20T16:12:45.813Z,100425.88
2023-02-20T16:15:17.447Z,100419.94
2023-02-20T16:17:45.403Z,100415.22
2023-02-20T16:20:18.492Z,100410.47
2023-02-20T16:22:48.088Z,100395.44
2023-02-20T16:25:17.720Z,100399.72
2023-02-20T16:27:45.973Z,100394.88
2023-02-20T16:30:32.188Z,100392.91
2023-02-20T16:33:01.466Z,100398.38
2023-02-20T16:35:29.100Z,100397.16
2023-02-20T16:37:58.114Z,100395.97
2023-02-20T16:40:25.739Z,100395.84
2023-02-20T16:42:53.360Z,100401.75
2023-02-20T16:45:21.521Z,100404.56
2023-02-20T16:47:50.563Z,100402.50
2023-02-20T16:50:20.646Z,100397.75
2023-02-20T16:52:50.742Z,100412.25
2023-02-20T16:55:21.743Z,100410.97
2023-02-20T16:57:49.669Z,100402.66
2023-02-20T17:00:18.986Z,100418.41
2023-02-20T17:02:47.330Z,100417.59
2023-02-20T17:05:16.082Z,100415.19
2023-02-20T17:07:43.730Z,100409.59
2023-02-20T17:10:11.505Z,100413.13
2023-02-20T17:12:40.530Z,100420.94
2023-02-20T17:15:09.406Z,100429.50
2023-02-20T17:17:37.101Z,100423.56
2023-02-20T17:20:05.076Z,100412.44
2023-02-20T17:22:32.909Z,100422.22
2023-02-20T17:25:00.560Z,100417.97
2023-02-20T17:27:28.533Z,100422.31
2023-02-20T17:29:58.068Z,100431.63
2023-02-20T17:32:25.779Z,100420.59
2023-02-20T17:34:53.464Z,100416.59
2023-02-20T17:37:22.098Z,100403.94
2023-02-20T17:39:49.766Z,100421.75
2023-02-20T17:42:17.927Z,100418.16
2023-02-20T17:44:45.968Z,100430.63
2023-02-20T17:47:14.934Z,100421.22
2023-02-20T17:49:42.624Z,100432.13
2023-02-20T17:52:11.507Z,100422.16
2023-02-20T17:54:41.196Z,100427.19
2023-02-20T17:57:08.855Z,100426.13
2023-02-20T17:59:39.358Z,100416.09
2023-02-20T18:02:07.822Z,100425.13
2023-02-20T18:04:37.003Z,100427.91
2023-02-20T18:07:04.976Z,100410.03
2023-02-20T18:09:33.921Z,100436.31
2023-02-20T18:12:01.880Z,100436.16
2023-02-20T18:14:29.975Z,100425.88
2023-02-20T18:16:58.144Z,100434.56
2023-02-20T18:19:25.805Z,100434.19
2023-02-20T18:21:54.770Z,100438.78
2023-02-20T18:24:25.508Z,100446.25
2023-02-20T18:26:53.897Z,100446.63
2023-02-20T18:29:22.004Z,100445.97
2023-02-20T18:31:50.791Z,100443.06
2023-02-20T18:34:19.648Z,100441.19
2023-02-20T18:36:47.338Z,100438.72
2023-02-20T18:39:17.268Z,100446.47
2023-02-20T18:41:51.119Z,100448.94
2023-02-20T18:44:27.667Z,100439.03
2023-02-20T18:46:55.362Z,100442.31
2023-02-20T18:49:22.999Z,100441.81
2023-02-20T18:51:50.671Z,100439.22
2023-02-20T18:54:20.513Z,100439.63
2023-02-20T18:56:48.759Z,100447.56
2023-02-20T18:59:17.165Z,100441.63
2023-02-20T19:01:46.789Z,100444.06
2023-02-20T19:04:15.455Z,100433.38
2023-02-20T19:06:44.585Z,100377.09
2023-02-20T19:09:15.961Z,100438.66
2023-02-20T19:11:43.633Z,100444.06
2023-02-20T19:14:11.799Z,100444.41
2023-02-20T19:16:39.568Z,100432.69
2023-02-20T19:19:08.711Z,100423.94
2023-02-20T19:21:36.319Z,100434.81
2023-02-20T19:24:04.965Z,100431.28
2023-02-20T19:26:32.708Z,100421.75
2023-02-20T19:31:33.088Z,100435.91
2023-02-20T19:34:01.328Z,100439.72
2023-02-20T19:36:30.303Z,100429.00
2023-02-20T19:38:57.907Z,100432.56
2023-02-20T19:41:25.696Z,100427.66
2023-02-20T19:43:55.624Z,100433.88
2023-02-20T19:46:26.085Z,100438.31
2023-02-20T19:48:53.768Z,100421.19
2023-02-20T19:51:21.990Z,100435.44
2023-02-20T19:53:51.208Z,100432.19
2023-02-20T19:56:18.895Z,100437.47
2023-02-20T19:58:46.582Z,100441.31
2023-02-20T20:01:15.660Z,100450.81
2023-02-20T20:03:44.326Z,100445.16
2023-02-20T20:06:13.282Z,100449.03
2023-02-20T20:09:01.830Z,100443.44
2023-02-20T20:11:30.056Z,100457.28
2023-02-20T20:13:57.819Z,100453.56
2023-02-20T20:16:25.608Z,100448.84
2023-02-20T20:18:53.470Z,100454.00
2023-02-20T20:21:21.182Z,100455.88
2023-02-20T20:23:48.794Z,100450.19
2023-02-20T20:26:16.507Z,100459.69
2023-02-20T20:28:45.463Z,100454.97
2023-02-20T20:31:13.434Z,100460.72
2023-02-20T20:33:41.377Z,100465.09
2023-02-20T20:36:09.825Z,100449.19
2023-02-20T20:38:37.497Z,100453.16
2023-02-20T20:41:05.297Z,100456.25
2023-02-20T20:43:33.064Z,100470.44
2023-02-20T20:46:02.160Z,100470.91
2023-02-20T20:48:29.945Z,100464.34
2023-02-20T20:50:57.582Z,100456.78
2023-02-20T20:53:25.219Z,100451.50
2023-02-20T20:55:52.861Z,100444.91
2023-02-20T20:58:20.557Z,100448.66
2023-02-20T21:00:48.161Z,100444.69
2023-02-20T21:03:17.236Z,100438.13
2023-02-20T21:05:44.896Z,100437.22
2023-02-20T21:08:12.601Z,100437.66
2023-02-20T21:10:40.198Z,100439.97
2023-02-20T21:13:07.803Z,100439.03
2023-02-20T21:15:35.999Z,100435.03
2023-02-20T21:18:04.519Z,100442.31
2023-02-20T21:20:35.811Z,100437.69
2023-02-20T21:23:04.689Z,100434.72
2023-02-20T21:25:32.345Z,100429.59
2023-02-20T21:28:00.132Z,100419.97
2023-02-20T21:30:28.254Z,100415.28
2023-02-20T21:32:56.004Z,100415.19
2023-02-20T21:35:26.033Z,100395.56
2023-02-20T21:37:55.501Z,100415.72
2023-02-20T21:40:23.151Z,100421.09
2023-02-20T21:43:08.561Z,100419.94
2023-02-20T21:45:37.015Z,100427.13
2023-02-20T21:48:05.541Z,100426.41
2023-02-20T21:50:33.297Z,100421.13
2023-02-20T21:53:02.358Z,100421.06
2023-02-20T21:55:30.733Z,100401.22
2023-02-20T21:58:03.335Z,100418.38
2023-02-20T22:00:30.038Z,100416.25
2023-02-20T22:02:56.695Z,100413.66
2023-02-20T22:05:23.329Z,100411.53
2023-02-20T22:08:08.345Z,100412.16
2023-02-20T22:10:54.972Z,100416.81
2023-02-20T22:13:40.350Z,100415.41
2023-02-20T22:16:25.918Z,100420.28
2023-02-20T22:19:11.098Z,100414.81
2023-02-20T22:21:56.173Z,100413.22
2023-02-20T22:24:41.396Z,100412.78
2023-02-20T22:27:28.841Z,100403.25
2023-02-20T22:30:14.532Z,100413.66
2023-02-20T22:32:59.812Z,100408.06
2023-02-20T22:35:44.916Z,100404.56
2023-02-20T22:38:30.294Z,100396.31
2023-02-20T22:41:15.970Z,100408.19
2023-02-20T22:44:02.800Z,100406.72
2023-02-20T22:46:48.179Z,100332.34
2023-02-20T22:49:33.362Z,100399.88
2023-02-20T22:52:18.551Z,100393.13
2023-02-20T22:55:05.653Z,100319.78
2023-02-20T22:57:51.345Z,100378.34
2023-02-20T23:00:38.911Z,100400.13
2023-02-20T23:03:24.762Z,100387.13
2023-02-20T23:06:19.032Z,100387.50
2023-02-20T23:09:05.557Z,100381.13
2023-02-20T23:11:52.369Z,100386.97
2023-02-20T23:14:38.119Z,100385.16
2023-02-20T23:17:34.911Z,100355.31
2023-02-20T23:20:21.140Z,100380.72
2023-02-20T23:23:06.345Z,100387.19
2023-02-20T23:25:51.725Z,100384.91
2023-02-20T23:28:37.601Z,100382.94
2023-02-20T23:31:23.707Z,100383.38
2023-02-20T23:34:10.210Z,100382.78
2023-02-20T23:36:55.569Z,100386.75
2023-02-20T23:39:41.253Z,100368.09
2023-02-20T23:42:26.313Z,100377.22
2023-02-20T23:45:12.131Z,100382.59
2023-02-20T23:47:58.880Z,100385.41
2023-02-20T23:50:45.398Z,100379.28
2023-02-20T23:53:30.729Z,100384.38
2023-02-20T23:56:15.829Z,100382.34
2023-02-20T23:59:01.130Z,100369.81
